createdAt,value
2019-03-23T00:01:29.642Z,90.70
2019-03-23T00:04:00.812Z,90.20
2019-03-23T00:06:31.451Z,92.10
2019-03-23T00:09:03.049Z,92.10
2019-03-23T00:11:33.414Z,91.40
2019-03-23T00:14:03.535Z,94.30
2019-03-23T00:16:33.813Z,95.30
2019-03-23T00:19:04.791Z,95.60
2019-03-23T00:21:35.176Z,96.30
2019-03-23T00:24:05.151Z,98.50
2019-03-23T00:26:40.872Z,98.30
2019-03-23T00:29:11.887Z,99.90
2019-03-23T00:31:49.564Z,99.90
2019-03-23T00:34:26.268Z,99.90
2019-03-23T00:36:56.721Z,99.90
2019-03-23T00:39:27.029Z,99.90
2019-03-23T00:41:57.905Z,99.90
2019-03-23T00:44:36.558Z,99.90
2019-03-23T00:47:06.893Z,99.90
2019-03-23T00:49:37.557Z,99.90
2019-03-23T00:52:07.858Z,99.90
2019-03-23T00:54:38.481Z,98.80
2019-03-23T00:57:09.345Z,98.80
2019-03-23T00:59:39.309Z,98.20
2019-03-23T01:02:09.275Z,99.90
2019-03-23T01:04:39.272Z,99.90
2019-03-23T01:07:09.592Z,99.90
2019-03-23T01:09:40.270Z,99.90
2019-03-23T01:12:11.689Z,99.90
2019-03-23T01:14:42.161Z,99.90
2019-03-23T01:17:12.719Z,99.90
2019-03-23T01:19:45.233Z,99.90
2019-03-23T01:22:15.279Z,99.40
2019-03-23T01:24:46.054Z,99.00
2019-03-23T01:27:16.719Z,99.30
2019-03-23T01:29:47.280Z,98.90
2019-03-23T01:32:17.345Z,99.70
2019-03-23T01:34:47.781Z,99.00
2019-03-23T01:37:18.504Z,99.00
2019-03-23T01:39:48.958Z,99.30
2019-03-23T01:42:19.364Z,97.70
2019-03-23T01:44:50.593Z,98.60
2019-03-23T01:47:20.956Z,99.20
2019-03-23T01:49:51.795Z,96.10
2019-03-23T01:52:21.815Z,96.30
2019-03-23T01:54:51.865Z,97.40
2019-03-23T01:57:22.306Z,97.90
2019-03-23T01:59:53.739Z,98.80
2019-03-23T02:02:24.106Z,96.10
2019-03-23T02:04:55.201Z,97.90
2019-03-23T02:07:25.252Z,97.00
2019-03-23T02:09:55.270Z,94.80
2019-03-23T02:12:25.609Z,95.50
2019-03-23T02:14:56.770Z,97.50
2019-03-23T02:17:26.701Z,97.40
2019-03-23T02:19:58.117Z,96.00
2019-03-23T02:22:28.290Z,95.10
2019-03-23T02:24:58.617Z,97.60
2019-03-23T02:27:28.770Z,98.00
2019-03-23T02:29:58.754Z,97.40
2019-03-23T02:32:29.422Z,95.10
2019-03-23T02:35:00.669Z,96.40
2019-03-23T02:37:31.104Z,97.10
2019-03-23T02:40:01.563Z,95.90
2019-03-23T02:42:31.775Z,96.00
2019-03-23T02:45:02.227Z,95.60
2019-03-23T02:47:33.473Z,95.20
2019-03-23T02:50:03.652Z,94.70
2019-03-23T02:52:35.108Z,92.60
2019-03-23T02:55:05.851Z,96.10
2019-03-23T02:57:36.268Z,94.90
2019-03-23T03:00:08.509Z,92.10
2019-03-23T03:02:46.924Z,94.70
2019-03-23T03:05:18.471Z,94.10
2019-03-23T03:07:48.493Z,93.60
2019-03-23T03:10:38.735Z,94.70
2019-03-23T03:13:09.126Z,93.40
2019-03-23T03:15:39.106Z,94.70
2019-03-23T03:18:19.711Z,93.50
2019-03-23T03:20:50.150Z,92.90
2019-03-23T03:23:20.248Z,94.60
2019-03-23T03:25:50.318Z,93.20
2019-03-23T03:28:20.339Z,94.30
2019-03-23T03:30:50.387Z,91.20
2019-03-23T03:33:20.765Z,92.40
2019-03-23T03:35:51.572Z,90.60
2019-03-23T03:38:21.580Z,88.00
2019-03-23T03:40:51.984Z,91.80
2019-03-23T03:43:22.605Z,89.50
2019-03-23T03:45:53.100Z,88.60
2019-03-23T03:48:23.646Z,88.80
2019-03-23T03:50:54.242Z,86.60
2019-03-23T03:53:25.145Z,90.90
2019-03-23T03:55:55.414Z,88.50
2019-03-23T03:58:25.745Z,89.40
2019-03-23T04:00:55.849Z,92.60
2019-03-23T04:03:26.736Z,94.30
2019-03-23T04:05:56.671Z,92.30
2019-03-23T04:08:27.254Z,92.30
2019-03-23T04:10:58.377Z,93.90
2019-03-23T04:13:28.473Z,94.30
2019-03-23T04:15:59.206Z,91.70
2019-03-23T04:18:29.529Z,93.10
2019-03-23T04:20:59.719Z,91.30
2019-03-23T04:23:40.063Z,90.20
2019-03-23T04:26:12.403Z,89.20
2019-03-23T04:28:42.446Z,89.10
2019-03-23T04:31:13.264Z,89.20
2019-03-23T04:33:49.600Z,87.20
2019-03-23T04:36:19.982Z,86.00
2019-03-23T04:38:59.528Z,89.80
2019-03-23T04:41:50.398Z,87.00
2019-03-23T04:44:21.774Z,90.10
2019-03-23T04:46:52.108Z,90.40
2019-03-23T04:49:22.984Z,89.20
2019-03-23T04:51:53.623Z,86.80
2019-03-23T04:54:24.045Z,86.90
2019-03-23T04:56:55.592Z,88.00
2019-03-23T04:59:26.057Z,89.20
2019-03-23T05:01:56.428Z,91.00
2019-03-23T05:04:26.531Z,89.30
2019-03-23T05:06:57.013Z,88.20
2019-03-23T05:09:27.737Z,89.70
2019-03-23T05:11:58.252Z,88.80
2019-03-23T05:14:28.747Z,89.20
2019-03-23T05:16:58.704Z,87.70
2019-03-23T05:19:28.768Z,90.70
2019-03-23T05:22:00.214Z,89.90
2019-03-23T05:24:30.878Z,90.90
2019-03-23T05:27:01.059Z,90.20
2019-03-23T05:29:31.398Z,89.40
2019-03-23T05:32:01.966Z,91.20
2019-03-23T05:34:33.004Z,90.80
2019-03-23T05:37:03.321Z,90.50
2019-03-23T05:39:33.621Z,88.70
2019-03-23T05:42:03.638Z,86.70
2019-03-23T05:44:33.709Z,86.30
2019-03-23T05:47:03.671Z,87.90
2019-03-23T05:49:33.847Z,87.50
2019-03-23T05:52:04.136Z,86.20
2019-03-23T05:54:35.249Z,85.60
2019-03-23T05:57:16.923Z,84.80
2019-03-23T06:00:00.392Z,84.90
2019-03-23T06:02:30.740Z,85.50
2019-03-23T06:05:00.729Z,85.30
2019-03-23T06:07:31.253Z,85.50
2019-03-23T06:10:02.354Z,88.20
2019-03-23T06:12:32.285Z,86.70
2019-03-23T06:15:02.661Z,85.30
2019-03-23T06:17:32.607Z,89.00
2019-03-23T06:20:04.714Z,85.90
2019-03-23T06:22:35.645Z,85.50
2019-03-23T06:25:08.214Z,85.00
2019-03-23T06:27:38.894Z,85.00
2019-03-23T06:30:09.407Z,85.30
2019-03-23T06:32:40.302Z,85.00
2019-03-23T06:35:10.774Z,84.40
2019-03-23T06:37:40.888Z,84.50
2019-03-23T06:40:12.114Z,84.60
2019-03-23T06:42:42.180Z,84.60
2019-03-23T06:45:12.688Z,85.50
2019-03-23T06:47:43.031Z,86.30
2019-03-23T06:50:13.786Z,84.80
2019-03-23T06:52:44.107Z,85.40
2019-03-23T06:55:14.241Z,84.80
2019-03-23T06:57:44.613Z,86.90
2019-03-23T07:00:15.089Z,85.30
2019-03-23T07:02:45.104Z,85.20
2019-03-23T07:05:15.694Z,87.50
2019-03-23T07:07:45.756Z,85.60
2019-03-23T07:10:16.251Z,85.10
2019-03-23T07:12:47.286Z,85.60
2019-03-23T07:15:20.295Z,84.80
2019-03-23T07:17:49.136Z,85.80
2019-03-23T07:20:19.533Z,86.70
2019-03-23T07:22:54.778Z,85.40
2019-03-23T07:25:24.063Z,85.00
2019-03-23T07:27:54.415Z,85.10
2019-03-23T07:30:24.885Z,84.50
2019-03-23T07:32:54.932Z,85.00
2019-03-23T07:35:25.751Z,84.20
2019-03-23T07:37:55.691Z,84.40
2019-03-23T07:40:26.013Z,84.40
2019-03-23T07:42:56.221Z,86.50
2019-03-23T07:45:26.277Z,84.90
2019-03-23T07:47:56.409Z,84.20
2019-03-23T07:50:26.572Z,84.60
2019-03-23T07:52:56.762Z,84.50
2019-03-23T07:55:27.175Z,84.60
2019-03-23T07:57:57.425Z,84.40
2019-03-23T08:00:27.528Z,84.80
2019-03-23T08:02:59.633Z,84.40
2019-03-23T08:05:29.761Z,84.00
2019-03-23T08:08:00.034Z,84.10
2019-03-23T08:10:31.696Z,83.80
2019-03-23T08:13:02.964Z,83.50
2019-03-23T08:15:33.139Z,85.20
2019-03-23T08:18:03.225Z,85.70
2019-03-23T08:20:40.530Z,87.60
2019-03-23T08:23:11.063Z,85.70
2019-03-23T08:25:42.227Z,85.20
2019-03-23T08:28:33.583Z,84.30
2019-03-23T08:31:00.323Z,83.30
2019-03-23T08:33:30.915Z,83.10
2019-03-23T08:36:01.377Z,82.70
2019-03-23T08:38:31.610Z,82.10
2019-03-23T08:41:01.708Z,82.20
2019-03-23T08:43:32.555Z,85.10
2019-03-23T08:46:15.263Z,83.20
2019-03-23T08:48:46.314Z,83.50
2019-03-23T08:51:17.213Z,86.00
2019-03-23T08:53:47.786Z,83.10
2019-03-23T08:56:18.097Z,81.60
2019-03-23T08:58:46.243Z,82.50
2019-03-23T09:01:16.626Z,81.30
2019-03-23T09:03:52.314Z,80.90
2019-03-23T09:06:19.238Z,83.80
2019-03-23T09:08:49.679Z,81.40
2019-03-23T09:11:20.849Z,81.20
2019-03-23T09:13:51.301Z,80.60
2019-03-23T09:16:21.633Z,80.40
2019-03-23T09:18:52.166Z,79.90
2019-03-23T09:21:22.809Z,81.10
2019-03-23T09:23:57.734Z,80.40
2019-03-23T09:26:28.276Z,79.50
2019-03-23T09:28:59.506Z,79.60
2019-03-23T09:31:30.257Z,79.90
2019-03-23T09:34:00.970Z,80.60
2019-03-23T09:36:31.550Z,79.80
2019-03-23T09:39:02.229Z,82.70
2019-03-23T09:41:32.420Z,82.70
2019-03-23T09:44:02.898Z,82.90
2019-03-23T09:46:33.321Z,80.30
2019-03-23T09:49:08.050Z,82.80
2019-03-23T09:51:38.467Z,81.20
2019-03-23T09:54:08.549Z,79.50
2019-03-23T09:56:39.102Z,79.60
2019-03-23T09:59:09.780Z,81.00
2019-03-23T10:01:48.401Z,81.20
2019-03-23T10:04:18.685Z,80.80
2019-03-23T10:06:48.677Z,79.50
2019-03-23T10:09:19.584Z,79.30
2019-03-23T10:11:49.699Z,79.90
2019-03-23T10:14:20.030Z,79.10
2019-03-23T10:16:51.135Z,78.60
2019-03-23T10:19:23.281Z,78.00
2019-03-23T10:21:54.272Z,77.90
2019-03-23T10:24:24.799Z,77.90
2019-03-23T10:26:55.776Z,77.50
2019-03-23T10:29:26.114Z,77.30
2019-03-23T10:31:56.159Z,79.00
2019-03-23T10:34:26.574Z,79.00
2019-03-23T10:36:57.512Z,78.60
2019-03-23T10:39:27.609Z,76.80
2019-03-23T10:41:58.396Z,82.80
2019-03-23T10:44:29.211Z,82.70
2019-03-23T10:46:59.666Z,86.20
2019-03-23T10:49:30.073Z,85.90
2019-03-23T10:52:00.785Z,84.50
2019-03-23T10:54:31.230Z,80.20
2019-03-23T10:57:01.334Z,84.10
2019-03-23T10:59:31.918Z,80.60
2019-03-23T11:02:02.048Z,81.10
2019-03-23T11:04:32.347Z,79.30
2019-03-23T11:07:03.130Z,79.50
2019-03-23T11:09:33.432Z,79.30
2019-03-23T11:12:03.718Z,81.30
2019-03-23T11:14:33.923Z,81.20
2019-03-23T11:17:04.450Z,82.00
2019-03-23T11:19:34.784Z,82.60
2019-03-23T11:22:05.279Z,83.50
2019-03-23T11:24:35.390Z,80.30
2019-03-23T11:27:06.586Z,82.00
2019-03-23T11:29:38.749Z,82.40
2019-03-23T11:32:09.395Z,83.70
2019-03-23T11:34:39.973Z,82.20
2019-03-23T11:37:10.504Z,81.40
2019-03-23T11:39:40.982Z,82.90
2019-03-23T11:42:11.040Z,84.00
2019-03-23T11:44:41.032Z,86.30
2019-03-23T11:47:11.139Z,82.90
2019-03-23T11:49:41.662Z,82.50
2019-03-23T11:52:12.137Z,83.40
2019-03-23T11:54:43.421Z,86.20
2019-03-23T11:57:13.767Z,88.50
2019-03-23T11:59:43.736Z,84.70
2019-03-23T12:02:16.795Z,83.70
2019-03-23T12:04:47.092Z,86.00
2019-03-23T12:07:17.520Z,83.10
2019-03-23T12:09:47.579Z,86.30
2019-03-23T12:12:18.871Z,85.10
2019-03-23T12:14:49.180Z,82.40
2019-03-23T12:17:19.614Z,83.10
2019-03-23T12:19:49.585Z,84.30
2019-03-23T12:22:25.693Z,85.30
2019-03-23T12:24:56.268Z,86.70
2019-03-23T12:27:26.276Z,84.60
2019-03-23T12:30:06.552Z,87.40
2019-03-23T12:32:28.284Z,86.80
2019-03-23T12:34:58.675Z,86.60
2019-03-23T12:37:28.910Z,88.90
2019-03-23T12:40:00.454Z,89.50
2019-03-23T12:42:30.900Z,92.80
2019-03-23T12:45:01.620Z,92.30
2019-03-23T12:47:31.651Z,92.30
2019-03-23T12:50:01.925Z,93.30
2019-03-23T12:52:34.866Z,94.00
2019-03-23T12:55:05.823Z,94.80
2019-03-23T12:57:36.596Z,93.10
2019-03-23T13:00:07.716Z,93.00
2019-03-23T13:02:38.097Z,93.10
2019-03-23T13:05:09.774Z,92.10
2019-03-23T13:07:40.914Z,94.40
2019-03-23T13:10:18.805Z,92.40
2019-03-23T13:12:49.336Z,92.60
2019-03-23T13:15:19.538Z,90.70
2019-03-23T13:18:03.728Z,88.20
2019-03-23T13:23:05.581Z,90.00
2019-03-23T13:25:35.840Z,86.70
2019-03-23T13:28:06.545Z,86.50
2019-03-23T13:30:39.736Z,86.70
2019-03-23T13:33:57.220Z,79.80
2019-03-23T13:36:28.350Z,81.30
2019-03-23T13:38:58.884Z,80.90
2019-03-23T13:41:29.775Z,80.30
2019-03-23T13:44:01.548Z,81.20
2019-03-23T13:46:31.970Z,80.70
2019-03-23T13:49:02.442Z,82.20
2019-03-23T13:51:32.958Z,82.10
2019-03-23T13:54:03.452Z,82.10
2019-03-23T13:56:33.612Z,81.40
2019-03-23T13:59:05.999Z,84.10
2019-03-23T14:01:36.529Z,81.40
2019-03-23T14:04:06.587Z,84.00
2019-03-23T14:06:37.295Z,82.20
2019-03-23T14:09:08.762Z,82.50
2019-03-23T14:11:40.662Z,80.90
2019-03-23T14:14:14.375Z,80.90
2019-03-23T14:16:44.719Z,81.90
2019-03-23T14:19:14.934Z,81.00
2019-03-23T14:21:45.228Z,81.80
2019-03-23T14:24:15.804Z,80.80
2019-03-23T14:26:45.976Z,81.40
2019-03-23T14:29:16.779Z,81.10
2019-03-23T14:31:47.954Z,80.50
2019-03-23T14:34:18.602Z,79.50
2019-03-23T14:36:49.551Z,80.40
2019-03-23T14:39:20.116Z,79.70
2019-03-23T14:41:50.736Z,81.60
2019-03-23T14:44:21.306Z,79.70
2019-03-23T14:46:52.392Z,81.70
2019-03-23T14:49:23.490Z,79.80
2019-03-23T14:51:55.276Z,81.60
2019-03-23T14:54:25.563Z,80.40
2019-03-23T14:56:56.090Z,83.10
2019-03-23T14:59:26.664Z,79.50
2019-03-23T15:01:57.301Z,81.50
2019-03-23T15:04:27.591Z,81.80
2019-03-23T15:06:57.957Z,81.40
2019-03-23T15:09:28.484Z,80.40
2019-03-23T15:11:59.701Z,80.60
2019-03-23T15:14:30.111Z,81.10
2019-03-23T15:17:01.840Z,80.20
2019-03-23T15:19:32.298Z,81.80
2019-03-23T15:22:02.333Z,81.80
2019-03-23T15:24:33.038Z,81.00
2019-03-23T15:27:22.694Z,82.90
2019-03-23T15:29:53.764Z,82.00
2019-03-23T15:32:24.210Z,82.20
2019-03-23T15:34:54.396Z,81.90
2019-03-23T15:37:24.822Z,82.10
2019-03-23T15:39:55.057Z,81.80
2019-03-23T15:42:25.304Z,81.50
2019-03-23T15:44:55.632Z,81.50
2019-03-23T15:47:25.712Z,83.20
2019-03-23T15:49:55.903Z,84.70
2019-03-23T15:52:34.644Z,80.70
2019-03-23T15:55:05.581Z,80.70
2019-03-23T15:57:35.721Z,82.20
2019-03-23T16:00:07.245Z,81.00
2019-03-23T16:02:37.688Z,79.40
2019-03-23T16:05:10.182Z,81.80
2019-03-23T16:07:42.230Z,78.30
2019-03-23T16:10:12.926Z,81.90
2019-03-23T16:12:43.610Z,79.50
2019-03-23T16:15:14.016Z,76.90
2019-03-23T16:17:44.185Z,77.80
2019-03-23T16:20:14.822Z,78.90
2019-03-23T16:22:51.140Z,76.10
2019-03-23T16:25:21.502Z,77.60
2019-03-23T16:27:51.761Z,76.30
2019-03-23T16:30:31.214Z,75.60
2019-03-23T16:33:01.546Z,79.10
2019-03-23T16:35:32.288Z,78.60
2019-03-23T16:38:02.644Z,76.90
2019-03-23T16:40:33.254Z,79.10
2019-03-23T16:43:06.188Z,75.20
2019-03-23T16:45:35.551Z,77.90
2019-03-23T16:48:06.102Z,78.30
2019-03-23T16:50:36.158Z,80.00
2019-03-23T16:53:06.171Z,81.70
2019-03-23T16:55:36.158Z,81.50
2019-03-23T16:58:15.785Z,81.60
2019-03-23T17:00:46.412Z,79.20
2019-03-23T17:03:16.702Z,80.90
2019-03-23T17:05:46.825Z,81.20
2019-03-23T17:08:17.580Z,82.70
2019-03-23T17:10:48.203Z,81.50
2019-03-23T17:13:34.783Z,80.20
2019-03-23T17:16:05.966Z,81.80
2019-03-23T17:18:38.176Z,84.30
2019-03-23T17:21:08.780Z,82.50
2019-03-23T17:23:39.300Z,82.90
2019-03-23T17:26:10.031Z,80.80
2019-03-23T17:28:40.335Z,82.80
2019-03-23T17:31:12.112Z,84.10
2019-03-23T17:33:48.220Z,84.50
2019-03-23T17:36:22.607Z,85.10
2019-03-23T17:38:53.195Z,83.00
2019-03-23T17:41:24.580Z,79.10
2019-03-23T17:43:54.637Z,79.40
2019-03-23T17:46:27.782Z,79.00
2019-03-23T17:48:58.393Z,81.90
2019-03-23T17:51:30.570Z,80.90
2019-03-23T17:54:02.691Z,86.00
2019-03-23T17:56:32.949Z,83.80
2019-03-23T17:59:05.238Z,81.40
2019-03-23T18:01:35.491Z,80.30
2019-03-23T18:04:06.339Z,82.10
2019-03-23T18:06:37.615Z,84.40
2019-03-23T18:09:09.257Z,83.40
2019-03-23T18:11:41.568Z,82.30
2019-03-23T18:14:12.338Z,80.00
2019-03-23T18:16:43.134Z,83.20
2019-03-23T18:19:13.138Z,82.40
2019-03-23T18:21:43.933Z,78.90
2019-03-23T18:24:14.803Z,81.00
2019-03-23T18:26:44.893Z,80.00
2019-03-23T18:29:14.974Z,79.70
2019-03-23T18:31:45.657Z,81.90
2019-03-23T18:34:16.312Z,81.90
2019-03-23T18:36:47.663Z,80.30
2019-03-23T18:39:27.077Z,81.30
2019-03-23T18:42:08.065Z,82.40
2019-03-23T18:44:38.849Z,81.70
2019-03-23T18:47:09.299Z,82.50
2019-03-23T18:49:40.460Z,82.80
2019-03-23T18:52:11.523Z,82.60
2019-03-23T18:54:43.379Z,84.00
2019-03-23T18:57:13.493Z,81.70
2019-03-23T18:59:49.646Z,81.50
2019-03-23T19:02:21.333Z,80.80
2019-03-23T19:04:51.795Z,80.40
2019-03-23T19:07:23.210Z,80.40
2019-03-23T19:09:54.200Z,81.00
2019-03-23T19:12:32.091Z,80.90
2019-03-23T19:15:03.584Z,80.50
2019-03-23T19:17:46.208Z,81.70
2019-03-23T19:21:10.208Z,82.60
2019-03-23T19:24:39.300Z,82.10
2019-03-23T19:27:11.334Z,81.80
2019-03-23T19:29:44.475Z,81.90
2019-03-23T19:32:17.905Z,81.40
2019-03-23T19:34:48.843Z,81.70
2019-03-23T19:37:19.203Z,81.10
2019-03-23T19:39:50.477Z,81.30
2019-03-23T19:42:21.862Z,81.80
2019-03-23T19:44:52.345Z,81.40
2019-03-23T19:47:24.776Z,81.10
2019-03-23T19:50:03.334Z,80.90
2019-03-23T19:52:46.770Z,80.60
2019-03-23T19:55:16.988Z,80.60
2019-03-23T19:57:47.192Z,80.80
2019-03-23T20:00:17.963Z,80.90
2019-03-23T20:02:48.446Z,80.80
2019-03-23T20:05:18.581Z,81.10
2019-03-23T20:07:49.017Z,81.10
2019-03-23T20:10:19.347Z,81.20
2019-03-23T20:12:49.993Z,81.40
2019-03-23T20:15:20.643Z,81.20
2019-03-23T20:17:51.114Z,81.30
2019-03-23T20:20:22.277Z,81.30
2019-03-23T20:22:53.123Z,81.40
2019-03-23T20:25:24.619Z,81.20
2019-03-23T20:27:54.949Z,81.40
2019-03-23T20:30:26.374Z,81.40
2019-03-23T20:32:56.718Z,81.40
2019-03-23T20:35:26.863Z,81.60
2019-03-23T20:38:02.141Z,81.60
2019-03-23T20:40:33.740Z,81.70
2019-03-23T20:43:08.456Z,81.70
2019-03-23T20:45:39.120Z,81.80
2019-03-23T20:48:09.704Z,81.70
2019-03-23T20:50:43.147Z,81.80
2019-03-23T20:53:16.621Z,82.10
2019-03-23T20:55:47.178Z,82.10
2019-03-23T20:58:18.162Z,81.80
2019-03-23T21:00:49.797Z,82.30
2019-03-23T21:03:24.744Z,81.90
2019-03-23T21:05:55.317Z,81.80
2019-03-23T21:08:26.934Z,82.30
2019-03-23T21:10:57.241Z,82.20
2019-03-23T21:13:29.013Z,82.10
2019-03-23T21:16:01.890Z,82.10
2019-03-23T21:18:40.154Z,82.30
2019-03-23T21:21:20.277Z,82.30
2019-03-23T21:23:52.134Z,82.40
2019-03-23T21:26:23.954Z,82.40
2019-03-23T21:28:54.321Z,82.50
2019-03-23T21:31:24.881Z,82.60
2019-03-23T21:33:55.039Z,82.90
2019-03-23T21:36:29.439Z,82.60
2019-03-23T21:39:07.528Z,82.80
2019-03-23T21:41:38.866Z,82.80
2019-03-23T21:44:08.987Z,82.80
2019-03-23T21:46:48.141Z,82.90
2019-03-23T21:49:19.899Z,82.80
2019-03-23T21:51:51.857Z,82.90
2019-03-23T21:54:22.503Z,82.80
2019-03-23T21:56:53.175Z,83.10
2019-03-23T21:59:26.097Z,83.20
2019-03-23T22:01:56.319Z,83.20
2019-03-23T22:04:35.699Z,83.30
2019-03-23T22:07:06.462Z,83.20
2019-03-23T22:09:37.641Z,83.20
2019-03-23T22:12:08.546Z,83.10
2019-03-23T22:14:48.844Z,83.40
2019-03-23T22:17:21.803Z,83.40
2019-03-23T22:19:52.876Z,83.50
2019-03-23T22:22:23.287Z,83.50
2019-03-23T22:24:54.197Z,83.50
2019-03-23T22:27:24.636Z,83.40
2019-03-23T22:29:55.371Z,83.50
2019-03-23T22:32:26.105Z,83.40
2019-03-23T22:34:57.831Z,83.50
2019-03-23T22:37:28.047Z,83.40
2019-03-23T22:39:59.749Z,83.60
2019-03-23T22:42:31.887Z,83.60
2019-03-23T22:45:03.023Z,83.90
2019-03-23T22:47:33.664Z,83.80
2019-03-23T22:50:04.324Z,83.80
2019-03-23T22:52:35.345Z,83.90
2019-03-23T22:55:09.851Z,83.80
2019-03-23T22:57:41.159Z,84.00
2019-03-23T23:00:14.072Z,83.90
2019-03-23T23:02:44.769Z,84.10
2019-03-23T23:05:15.478Z,84.00
2019-03-23T23:07:45.912Z,83.90
2019-03-23T23:10:16.475Z,84.00
2019-03-23T23:12:48.149Z,84.00
2019-03-23T23:15:18.537Z,84.00
2019-03-23T23:17:48.566Z,84.00
2019-03-23T23:20:19.245Z,84.10
2019-03-23T23:22:50.059Z,84.30
2019-03-23T23:25:20.280Z,84.20
2019-03-23T23:27:50.608Z,84.20
2019-03-23T23:30:21.011Z,84.20
2019-03-23T23:32:51.175Z,84.40
2019-03-23T23:35:21.916Z,84.30
2019-03-23T23:37:52.017Z,84.20
2019-03-23T23:40:22.479Z,84.00
2019-03-23T23:42:53.203Z,84.10
2019-03-23T23:45:23.844Z,84.20
2019-03-23T23:47:54.639Z,84.30
2019-03-23T23:50:24.969Z,84.00
2019-03-23T23:52:55.897Z,84.10
2019-03-23T23:55:26.388Z,84.30
2019-03-23T23:57:57.534Z,84.10
